Time;durP1;ratioP1;P1;durP2;ratioP2;P2;SDS_P1;SDS_P2;PMS_P1;PMS_P2;Temp;Humidity;BMP_temperature;BMP_pressure;BME280_temperature;BME280_humidity;BME280_pressure;Samples;Min_cycle;Max_cycle;Signal;HPM_P1;HPM_P2
2022/10/27 00:00:53;;;;;;;19.93;11.07;;;;;;;9.97;89.02;101317.89;1751150;82;21021;-72
2022/10/27 00:03:22;;;;;;;14.73;9.80;;;;;;;9.93;88.73;101318.86;1742582;82;21264;-72
2022/10/27 00:05:49;;;;;;;17.20;10.13;;;;;;;9.86;88.44;101323.78;1735831;81;20983;-72
2022/10/27 00:08:20;;;;;;;16.40;10.87;;;;;;;9.76;88.21;101328.34;1735959;82;21053;-72
2022/10/27 00:10:59;;;;;;;14.23;10.13;;;;;;;9.68;88.09;101335.02;1735723;81;21198;-72
2022/10/27 00:13:28;;;;;;;20.15;10.78;;;;;;;9.62;88.17;101327.30;1735895;82;20990;-72
2022/10/27 00:16:03;;;;;;;19.50;11.90;;;;;;;9.55;88.17;101334.83;1735796;82;21014;-72
2022/10/27 00:18:30;;;;;;;15.40;10.67;;;;;;;9.48;88.20;101343.69;1734576;82;21013;-72
2022/10/27 00:21:07;;;;;;;18.60;10.83;;;;;;;9.42;88.17;101340.70;1736082;82;21003;-72
2022/10/27 00:23:34;;;;;;;15.97;10.07;;;;;;;9.38;88.22;101345.14;1735653;82;21100;-72
2022/10/27 00:26:02;;;;;;;20.03;11.40;;;;;;;9.32;88.15;101341.32;1735951;82;20934;-72
2022/10/27 00:28:29;;;;;;;17.93;11.80;;;;;;;9.29;88.35;101345.30;1735737;81;20986;-72
2022/10/27 00:31:03;;;;;;;14.53;11.00;;;;;;;9.27;88.59;101347.52;1735929;81;21065;-72
2022/10/27 00:33:30;;;;;;;16.43;10.80;;;;;;;9.27;89.21;101348.38;1735730;82;21066;-72
2022/10/27 00:36:08;;;;;;;17.40;12.63;;;;;;;9.31;89.45;101353.11;1735683;82;22016;-72
2022/10/27 00:38:37;;;;;;;19.00;12.43;;;;;;;9.34;89.95;101356.56;1735782;82;20910;-72
2022/10/27 00:41:06;;;;;;;17.93;12.57;;;;;;;9.38;90.22;101354.74;1735647;82;21080;-72
2022/10/27 00:43:38;;;;;;;17.10;12.13;;;;;;;9.39;90.25;101349.92;1735977;82;20990;-72
2022/10/27 00:46:16;;;;;;;17.50;12.23;;;;;;;9.41;90.29;101356.45;1736003;82;20982;-72
2022/10/27 00:48:50;;;;;;;19.53;12.97;;;;;;;9.42;90.51;101354.23;1735284;82;21136;-72
2022/10/27 00:51:18;;;;;;;18.17;13.87;;;;;;;9.46;90.77;101358.09;1735798;82;20987;-72
2022/10/27 00:53:48;;;;;;;23.83;13.60;;;;;;;9.52;90.88;101368.45;1736104;82;20875;-72
2022/10/27 00:56:18;;;;;;;24.90;14.73;;;;;;;9.56;91.13;101367.53;1735920;82;21090;-72
2022/10/27 00:58:46;;;;;;;23.00;13.55;;;;;;;9.63;91.26;101370.03;1715207;82;21026;-72
2022/10/27 01:01:15;;;;;;;21.07;13.67;;;;;;;9.67;91.31;101365.14;1735589;82;21130;-72
2022/10/27 01:03:44;;;;;;;22.27;14.40;;;;;;;9.71;91.40;101369.00;1744204;82;21005;-72
2022/10/27 01:06:12;;;;;;;21.40;13.93;;;;;;;9.74;91.33;101367.63;1751280;82;21017;-72
2022/10/27 01:08:39;;;;;;;23.73;15.47;;;;;;;9.80;91.46;101371.44;1751540;82;21443;-72
2022/10/27 01:11:07;;;;;;;23.97;15.27;;;;;;;9.86;91.57;101369.16;1751551;82;21056;-72
2022/10/27 01:13:34;;;;;;;23.17;14.83;;;;;;;9.91;91.54;101370.39;1751396;82;21124;-72
2022/10/27 01:16:34;;;;;;;20.10;14.07;;;;;;;9.94;91.46;101368.56;1751299;82;21013;-72
2022/10/27 01:19:27;;;;;;;26.42;14.93;;;;;;;9.96;91.38;101368.09;1751536;82;21001;-72
2022/10/27 01:22:06;;;;;;;22.00;14.47;;;;;;;10.01;91.56;101370.64;1749472;81;21020;-72
2022/10/27 01:24:43;;;;;;;24.70;15.10;;;;;;;10.05;91.50;101367.05;1751424;82;20986;-72
2022/10/27 01:27:55;;;;;;;19.33;14.23;;;;;;;10.05;91.48;101365.30;1751468;82;21137;-72
2022/10/27 01:30:24;;;;;;;22.17;14.87;;;;;;;10.06;91.47;101368.80;1750940;81;21021;-72
2022/10/27 01:32:59;;;;;;;24.83;15.93;;;;;;;10.08;91.49;101373.99;1751470;82;21025;-72
2022/10/27 01:35:52;;;;;;;20.23;14.40;;;;;;;10.09;91.51;101380.95;1751570;82;21439;-72
2022/10/27 01:38:33;;;;;;;26.87;16.07;;;;;;;10.13;91.56;101386.56;1751641;82;20997;-72
2022/10/27 01:41:07;;;;;;;21.33;14.38;;;;;;;10.14;91.59;101379.11;1751783;82;21115;-72
2022/10/27 01:43:35;;;;;;;25.53;15.70;;;;;;;10.17;91.68;101379.04;1751341;82;21001;-76
2022/10/27 01:46:07;;;;;;;27.10;15.10;;;;;;;10.18;91.62;101380.34;1730544;82;21032;-72
2022/10/27 01:48:36;;;;;;;21.43;14.77;;;;;;;10.21;91.63;101384.66;1751750;82;21017;-71
2022/10/27 01:51:08;;;;;;;23.43;14.70;;;;;;;10.21;91.64;101378.11;1751376;82;20990;-72
2022/10/27 01:53:40;;;;;;;22.80;14.37;;;;;;;10.23;91.67;101381.56;1751836;82;21057;-72
2022/10/27 01:56:30;;;;;;;21.80;14.83;;;;;;;10.24;91.75;101380.66;1751278;82;21514;-71
2022/10/27 01:59:40;;;;;;;20.13;14.53;;;;;;;10.27;91.76;101381.94;1751013;81;21285;-72
2022/10/27 02:02:27;;;;;;;25.13;14.30;;;;;;;10.28;91.74;101381.03;1751332;82;20986;-72
2022/10/27 02:05:11;;;;;;;23.60;14.23;;;;;;;10.29;91.82;101381.47;1732029;81;21016;-76
2022/10/27 02:07:59;;;;;;;21.83;15.27;;;;;;;10.30;91.74;101378.39;1730882;82;21204;-72
2022/10/27 02:10:34;;;;;;;22.93;14.87;;;;;;;10.30;91.83;101385.80;1730994;82;21004;-72
2022/10/27 02:13:04;;;;;;;23.43;14.50;;;;;;;10.33;91.97;101383.57;1721740;82;21537;-72
2022/10/27 02:15:39;;;;;;;23.10;14.97;;;;;;;10.36;91.97;101386.98;1731370;82;21012;-72
2022/10/27 02:18:13;;;;;;;21.13;14.40;;;;;;;10.35;91.85;101385.27;1729903;82;21072;-78
2022/10/27 02:20:45;;;;;;;21.37;13.87;;;;;;;10.35;91.69;101387.89;1730881;82;22094;-72
2022/10/27 02:23:16;;;;;;;21.37;14.17;;;;;;;10.31;91.29;101386.66;1730735;82;21060;-72
2022/10/27 02:26:06;;;;;;;20.63;14.07;;;;;;;10.24;91.15;101388.06;1730808;82;21375;-72
2022/10/27 02:28:38;;;;;;;20.43;13.23;;;;;;;10.22;91.26;101391.61;1731592;82;21033;-72
2022/10/27 02:31:07;;;;;;;19.30;13.23;;;;;;;10.14;90.67;101393.52;1731033;82;21498;-72
2022/10/27 02:33:35;;;;;;;20.83;14.07;;;;;;;10.06;90.65;101391.06;1730752;82;21135;-73
2022/10/27 02:36:02;;;;;;;19.20;13.60;;;;;;;10.00;90.74;101397.70;1731488;82;21008;-72
2022/10/27 02:38:30;;;;;;;19.27;13.20;;;;;;;9.95;90.49;101400.85;1730767;82;22096;-72
2022/10/27 02:40:57;;;;;;;24.63;13.80;;;;;;;9.88;90.45;101394.88;1731110;80;21025;-72
2022/10/27 02:43:24;;;;;;;20.93;13.57;;;;;;;9.80;90.50;101385.84;1730770;82;21064;-72
2022/10/27 02:45:53;;;;;;;21.60;13.93;;;;;;;9.77;90.80;101387.20;1731035;82;21114;-76
2022/10/27 02:48:20;;;;;;;21.73;13.97;;;;;;;9.74;91.00;101392.50;1730720;82;21035;-72
2022/10/27 02:50:47;;;;;;;21.93;13.67;;;;;;;9.73;91.35;101392.55;1730978;82;20997;-72
2022/10/27 02:53:14;;;;;;;22.73;14.00;;;;;;;9.72;91.41;101390.34;1730787;82;21469;-73
2022/10/27 02:55:41;;;;;;;20.20;13.50;;;;;;;9.70;91.53;101388.23;1730972;82;21983;-72
2022/10/27 02:58:08;;;;;;;22.03;14.37;;;;;;;9.69;91.62;101393.02;1730751;82;21542;-72
2022/10/27 03:00:36;;;;;;;23.47;14.70;;;;;;;9.69;91.79;101394.33;1730784;82;20925;-72
2022/10/27 03:03:03;;;;;;;23.87;14.63;;;;;;;9.68;91.86;101397.00;1730758;82;20985;-72
2022/10/27 03:05:30;;;;;;;20.97;13.63;;;;;;;9.65;91.82;101401.84;1730840;82;21426;-72
2022/10/27 03:07:57;;;;;;;18.70;12.97;;;;;;;9.61;91.44;101406.23;1730835;82;20993;-72
2022/10/27 03:10:25;;;;;;;19.20;13.73;;;;;;;9.56;91.31;101409.82;1731323;81;21134;-71
2022/10/27 03:12:52;;;;;;;21.87;13.17;;;;;;;9.51;91.49;101419.08;1730666;82;20924;-72
2022/10/27 03:15:19;;;;;;;20.67;13.77;;;;;;;9.48;91.77;101417.83;1730832;82;21442;-72
2022/10/27 03:17:47;;;;;;;21.93;13.53;;;;;;;9.46;91.54;101419.59;1730753;81;21028;-72
2022/10/27 03:20:16;;;;;;;20.47;13.23;;;;;;;9.43;91.59;101420.95;1730816;82;21000;-72
2022/10/27 03:22:43;;;;;;;22.50;14.40;;;;;;;9.41;91.66;101427.10;1730800;82;21125;-72
2022/10/27 03:25:13;;;;;;;24.97;14.27;;;;;;;9.37;91.61;101427.15;1730981;82;21012;-71
2022/10/27 03:27:43;;;;;;;24.75;13.15;;;;;;;9.36;91.99;101433.25;1730976;82;21012;-72
2022/10/27 03:30:14;;;;;;;20.97;13.03;;;;;;;9.34;91.80;101426.34;1731341;82;21478;-72
2022/10/27 03:32:48;;;;;;;20.33;13.60;;;;;;;9.30;91.87;101424.64;1730784;82;20997;-71
2022/10/27 03:35:17;;;;;;;19.70;12.60;;;;;;;9.25;91.44;101427.77;1731063;82;21570;-72
2022/10/27 03:37:44;;;;;;;19.60;13.37;;;;;;;9.17;91.05;101427.88;1730635;82;21008;-72
2022/10/27 03:40:13;;;;;;;17.70;12.40;;;;;;;9.09;90.83;101426.70;1731013;82;20996;-72
2022/10/27 03:42:41;;;;;;;17.77;11.93;;;;;;;9.04;90.89;101431.13;1730806;82;21012;-77
2022/10/27 03:45:10;;;;;;;17.83;12.70;;;;;;;9.00;90.91;101433.80;1730959;82;21017;-78
2022/10/27 03:47:37;;;;;;;16.57;12.77;;;;;;;8.97;91.13;101437.32;1730729;82;21286;-72
2022/10/27 03:50:06;;;;;;;18.20;13.20;;;;;;;8.95;91.16;101433.85;1731026;82;21033;-72
2022/10/27 03:52:33;;;;;;;18.83;12.70;;;;;;;8.90;90.97;101435.70;1730781;82;20985;-72
2022/10/27 03:55:01;;;;;;;19.27;13.17;;;;;;;8.86;91.05;101436.60;1731124;82;21174;-77
2022/10/27 03:57:28;;;;;;;20.17;13.30;;;;;;;8.81;91.12;101443.22;1730718;82;21032;-72
2022/10/27 03:59:56;;;;;;;18.63;11.87;;;;;;;8.78;90.97;101438.45;1731062;82;21197;-72
2022/10/27 04:02:23;;;;;;;22.53;13.27;;;;;;;8.75;91.15;101444.58;1730796;82;20978;-72
2022/10/27 04:04:50;;;;;;;20.93;13.50;;;;;;;8.71;91.22;101446.83;1730759;81;20976;-72
2022/10/27 04:07:18;;;;;;;23.27;14.03;;;;;;;8.73;91.88;101450.71;1730707;81;21002;-72
2022/10/27 04:09:45;;;;;;;19.47;12.10;;;;;;;8.75;91.96;101446.34;1730860;82;21012;-71
2022/10/27 04:12:12;;;;;;;22.70;13.70;;;;;;;8.70;91.42;101448.59;1730701;82;21132;-72
2022/10/27 04:14:39;;;;;;;16.73;12.53;;;;;;;8.66;91.36;101449.48;1730690;82;20970;-78
2022/10/27 04:17:06;;;;;;;19.77;12.40;;;;;;;8.62;91.18;101450.87;1730654;82;20992;-71
2022/10/27 04:19:33;;;;;;;18.27;12.23;;;;;;;8.57;91.06;101457.45;1730749;82;21068;-71
2022/10/27 04:22:00;;;;;;;20.17;12.90;;;;;;;8.58;91.69;101459.17;1730804;82;21493;-72
2022/10/27 04:24:27;;;;;;;17.30;12.40;;;;;;;8.55;91.24;101455.29;1730766;82;21904;-72
2022/10/27 04:26:55;;;;;;;20.90;12.23;;;;;;;8.53;91.57;101459.66;1730629;82;20921;-72
2022/10/27 04:29:22;;;;;;;19.77;12.40;;;;;;;8.49;91.45;101457.53;1730701;82;20928;-72
2022/10/27 04:31:49;;;;;;;20.20;12.50;;;;;;;8.47;91.47;101452.76;1730953;82;20985;-72
2022/10/27 04:34:17;;;;;;;19.83;12.67;;;;;;;8.45;91.35;101462.38;1730849;82;21024;-71
2022/10/27 04:36:44;;;;;;;20.00;13.20;;;;;;;8.42;91.32;101466.75;1730893;82;21462;-71
2022/10/27 04:39:13;;;;;;;21.43;13.43;;;;;;;8.40;91.45;101468.09;1730695;82;20936;-72
2022/10/27 04:41:40;;;;;;;22.97;12.90;;;;;;;8.38;91.34;101476.80;1730922;82;21017;-72
2022/10/27 04:44:08;;;;;;;19.40;12.40;;;;;;;8.34;91.36;101479.00;1730678;82;21015;-72
2022/10/27 04:46:35;;;;;;;17.20;12.53;;;;;;;8.29;91.42;101483.44;1730945;82;20989;-71
2022/10/27 04:49:02;;;;;;;19.93;13.00;;;;;;;8.24;91.38;101480.41;1730750;82;21131;-71
2022/10/27 04:51:30;;;;;;;23.07;12.97;;;;;;;8.20;91.17;101484.36;1730955;82;21063;-72
2022/10/27 04:53:57;;;;;;;20.40;11.77;;;;;;;8.14;91.26;101480.06;1730766;82;20989;-72
2022/10/27 04:56:25;;;;;;;22.43;13.03;;;;;;;8.11;90.93;101487.08;1730959;82;21024;-71
2022/10/27 04:58:52;;;;;;;20.53;13.00;;;;;;;8.08;91.43;101484.50;1730653;82;21525;-72
2022/10/27 05:01:20;;;;;;;20.07;13.03;;;;;;;8.07;91.44;101487.55;1731131;82;21105;-72
2022/10/27 05:03:47;;;;;;;17.63;12.27;;;;;;;8.05;91.51;101491.91;1731626;82;20932;-72
2022/10/27 05:06:14;;;;;;;19.47;13.03;;;;;;;8.02;91.44;101490.64;1751295;82;21025;-71
2022/10/27 05:08:41;;;;;;;22.50;13.53;;;;;;;8.01;91.48;101491.53;1751205;82;21021;-72
2022/10/27 05:11:08;;;;;;;23.23;13.87;;;;;;;8.00;91.82;101488.03;1751347;82;21545;-73
2022/10/27 05:13:36;;;;;;;21.83;13.27;;;;;;;7.99;91.56;101488.92;1751304;82;21126;-71
2022/10/27 05:16:05;;;;;;;22.30;13.23;;;;;;;7.95;91.51;101489.84;1751213;82;21456;-72
2022/10/27 05:18:32;;;;;;;19.67;12.77;;;;;;;7.91;91.47;101494.65;1751312;82;20937;-72
2022/10/27 05:20:59;;;;;;;21.70;12.93;;;;;;;7.89;91.66;101500.31;1751238;82;20917;-71
2022/10/27 05:23:27;;;;;;;21.30;12.40;;;;;;;7.86;91.53;101499.48;1751189;82;21028;-72
2022/10/27 05:25:55;;;;;;;17.23;12.37;;;;;;;7.82;91.63;101504.73;1751289;82;21330;-76
2022/10/27 05:28:23;;;;;;;21.67;13.17;;;;;;;7.79;91.37;101515.20;1751170;82;21005;-72
2022/10/27 05:30:56;;;;;;;20.27;12.63;;;;;;;7.76;91.55;101516.94;1751323;82;21044;-72
2022/10/27 05:33:25;;;;;;;18.53;11.97;;;;;;;7.75;91.56;101513.47;1731448;82;21005;-71
2022/10/27 05:35:53;;;;;;;20.37;12.97;;;;;;;7.72;91.51;101517.41;1751263;82;21071;-71
2022/10/27 05:38:20;;;;;;;23.63;12.13;;;;;;;7.68;91.40;101517.02;1751494;82;21057;-72
2022/10/27 05:40:49;;;;;;;17.53;11.53;;;;;;;7.66;91.46;101521.82;1751255;82;20974;-72
2022/10/27 05:43:16;;;;;;;20.27;12.13;;;;;;;7.64;91.40;101524.87;1731016;82;21020;-72
2022/10/27 05:45:43;;;;;;;18.10;12.17;;;;;;;7.62;91.46;101529.23;1751225;82;20997;-72
2022/10/27 05:48:10;;;;;;;18.10;12.57;;;;;;;7.60;91.54;101525.34;1751472;82;21033;-72
2022/10/27 05:50:37;;;;;;;18.07;11.90;;;;;;;7.58;91.52;101522.73;1751316;82;21110;-71
2022/10/27 05:53:05;;;;;;;17.60;12.50;;;;;;;7.56;91.56;101530.13;1751141;82;20972;-72
2022/10/27 05:55:34;;;;;;;17.53;11.30;;;;;;;7.54;91.63;101528.86;1751615;82;21036;-71
2022/10/27 05:58:04;;;;;;;18.07;11.23;;;;;;;7.53;91.47;101528.85;1751651;82;20941;-72
2022/10/27 06:00:36;;;;;;;15.55;11.93;;;;;;;7.52;91.47;101531.05;1751516;82;20997;-72
2022/10/27 06:03:07;;;;;;;16.10;10.77;;;;;;;7.49;91.58;101531.92;1751823;82;21180;-71
2022/10/27 06:05:36;;;;;;;17.47;11.33;;;;;;;7.48;91.55;101539.34;1740849;82;21009;-78
2022/10/27 06:08:04;;;;;;;15.98;10.93;;;;;;;7.46;91.49;101548.91;1736193;81;21002;-72
2022/10/27 06:10:31;;;;;;;18.40;10.83;;;;;;;7.47;91.77;101556.29;1735797;82;21096;-73
2022/10/27 06:13:04;;;;;;;17.30;11.60;;;;;;;7.47;91.73;101558.90;1735895;81;21029;-71
2022/10/27 06:15:33;;;;;;;17.00;10.93;;;;;;;7.46;91.72;101563.70;1735795;82;21538;-72
2022/10/27 06:18:00;;;;;;;23.40;12.13;;;;;;;7.51;92.17;101567.12;1735647;82;20936;-71
2022/10/27 06:20:28;;;;;;;19.83;11.83;;;;;;;7.57;92.71;101567.11;1735757;82;21399;-78
2022/10/27 06:22:55;;;;;;;20.93;12.53;;;;;;;7.65;93.08;101567.94;1735937;82;20982;-72
2022/10/27 06:25:23;;;;;;;21.73;12.37;;;;;;;7.70;93.11;101571.35;1735733;82;21159;-72
2022/10/27 06:27:51;;;;;;;22.80;13.20;;;;;;;7.76;93.40;101568.73;1735741;81;21078;-72
2022/10/27 06:30:18;;;;;;;22.43;12.67;;;;;;;7.79;93.14;101571.31;1735675;82;21014;-71
2022/10/27 06:32:45;;;;;;;20.57;12.53;;;;;;;7.83;93.35;101575.63;1735828;82;21467;-72
2022/10/27 06:35:12;;;;;;;20.93;12.37;;;;;;;7.87;93.23;101577.80;1736001;81;21025;-72
2022/10/27 06:37:42;;;;;;;16.63;11.03;;;;;;;7.89;93.05;101576.46;1735937;82;20991;-71
2022/10/27 06:40:12;;;;;;;18.00;11.25;;;;;;;7.92;93.29;101579.05;1715740;82;21114;-72
2022/10/27 06:42:40;;;;;;;;;;;;;;;7.97;93.50;101579.44;1738281;81;21021;-72
2022/10/27 06:45:09;;;;;;;17.70;10.87;;;;;;;8.05;93.83;101578.08;1736072;82;20175;-72
2022/10/27 06:47:36;;;;;;;18.27;11.07;;;;;;;8.10;93.91;101580.67;1735761;82;21022;-71
2022/10/27 06:50:05;;;;;;;19.40;12.23;;;;;;;8.16;93.96;101585.39;1736089;81;21046;-72
2022/10/27 06:52:36;;;;;;;19.37;12.63;;;;;;;8.23;94.25;101586.19;1735660;82;21827;-72
2022/10/27 06:55:05;;;;;;;21.23;11.57;;;;;;;8.29;94.23;101586.17;1735488;81;21076;-72
2022/10/27 06:57:41;;;;;;;17.37;11.40;;;;;;;8.37;94.27;101591.30;1735854;82;21051;-71
2022/10/27 07:00:10;;;;;;;17.80;10.00;;;;;;;8.45;94.51;101595.64;1735968;82;21471;-72
2022/10/27 07:02:38;;;;;;;17.52;11.25;;;;;;;8.53;94.54;101594.23;1735886;82;21005;-72
2022/10/27 07:05:07;;;;;;;17.73;11.33;;;;;;;8.62;94.70;101598.53;1734295;81;21186;-71
2022/10/27 07:07:35;;;;;;;16.57;11.67;;;;;;;8.70;94.71;101600.60;1730681;82;20997;-74
2022/10/27 07:10:06;;;;;;;15.10;11.20;;;;;;;8.78;95.00;101599.22;1731062;82;21434;-72
2022/10/27 07:12:34;;;;;;;16.87;11.63;;;;;;;8.89;95.25;101602.59;1730839;82;20993;-72
2022/10/27 07:15:01;;;;;;;17.27;11.80;;;;;;;8.98;95.43;101602.92;1731082;82;21446;-72
2022/10/27 07:17:29;;;;;;;18.90;11.90;;;;;;;9.07;95.82;101608.93;1730678;82;21371;-72
2022/10/27 07:19:56;;;;;;;19.37;10.23;;;;;;;9.20;96.08;101613.59;1731025;82;20996;-72
2022/10/27 07:22:24;;;;;;;19.13;11.60;;;;;;;9.29;95.99;101614.77;1730795;82;21028;-71
2022/10/27 07:24:51;;;;;;;13.57;10.10;;;;;;;9.39;96.08;101615.51;1731064;82;21012;-72
2022/10/27 07:27:18;;;;;;;16.93;9.90;;;;;;;9.50;96.37;101621.92;1730827;82;21012;-72
2022/10/27 07:29:45;;;;;;;15.30;9.67;;;;;;;9.61;96.70;101622.19;1730999;82;21054;-71
2022/10/27 07:32:12;;;;;;;13.87;9.40;;;;;;;9.76;96.98;101624.20;1730738;82;21494;-72
2022/10/27 07:34:40;;;;;;;13.27;8.33;;;;;;;9.88;97.10;101621.84;1730705;82;21059;-72
2022/10/27 07:37:07;;;;;;;11.63;8.57;;;;;;;10.00;97.28;101625.58;1730840;82;20997;-72
2022/10/27 07:39:35;;;;;;;11.47;8.93;;;;;;;10.12;97.37;101628.03;1730968;82;21512;-72
2022/10/27 07:42:02;;;;;;;11.77;8.80;;;;;;;10.23;97.47;101631.80;1730726;82;21092;-71
2022/10/27 07:44:29;;;;;;;11.20;8.27;;;;;;;10.36;97.61;101637.27;1730608;82;20977;-72
2022/10/27 07:46:57;;;;;;;15.00;8.77;;;;;;;10.48;97.77;101643.63;1730798;82;21005;-72
2022/10/27 07:49:24;;;;;;;11.53;7.97;;;;;;;10.62;98.01;101643.85;1731044;82;21064;-71
2022/10/27 07:51:51;;;;;;;11.27;7.60;;;;;;;10.76;98.32;101643.16;1730802;82;22052;-78
2022/10/27 07:54:19;;;;;;;12.13;7.80;;;;;;;10.92;98.62;101645.06;1730904;82;21252;-71
2022/10/27 07:56:48;;;;;;;9.57;7.77;;;;;;;11.05;98.59;101645.22;1730701;82;21011;-72
2022/10/27 07:59:15;;;;;;;12.20;7.53;;;;;;;11.23;99.00;101635.29;1731107;82;20985;-72
2022/10/27 08:01:42;;;;;;;13.72;7.22;;;;;;;11.38;99.35;101635.81;1730826;82;21441;-72
2022/10/27 08:04:09;;;;;;;11.12;7.50;;;;;;;11.61;100.00;101638.40;1731157;82;20997;-72
2022/10/27 08:06:37;;;;;;;10.28;7.00;;;;;;;11.77;99.71;101639.80;1730663;82;21993;-72
2022/10/27 08:09:04;;;;;;;12.85;6.47;;;;;;;11.98;100.00;101641.58;1730721;82;21053;-72
2022/10/27 08:11:32;;;;;;;9.20;6.05;;;;;;;12.22;100.00;101646.27;1730765;82;20936;-72
2022/10/27 08:13:59;;;;;;;10.32;5.55;;;;;;;12.48;100.00;101643.44;1730770;82;21008;-72
2022/10/27 08:16:27;;;;;;;8.73;5.58;;;;;;;12.70;100.00;101635.41;1730657;82;21513;-78
2022/10/27 08:18:54;;;;;;;10.10;5.40;;;;;;;12.94;100.00;101631.27;1730784;82;21207;-72
2022/10/27 08:21:22;;;;;;;11.53;5.10;;;;;;;13.21;100.00;101637.11;1730673;82;20933;-72
2022/10/27 08:23:49;;;;;;;9.73;5.10;;;;;;;13.44;99.68;101639.11;1730726;82;20986;-72
2022/10/27 08:26:16;;;;;;;9.08;5.90;;;;;;;13.67;99.25;101643.27;1730691;82;21564;-72
2022/10/27 08:28:43;;;;;;;10.72;6.30;;;;;;;13.89;98.78;101650.52;1730755;82;21569;-72
2022/10/27 08:31:10;;;;;;;12.65;6.80;;;;;;;14.09;98.55;101655.17;1730778;82;21780;-77
2022/10/27 08:33:38;;;;;;;8.83;6.15;;;;;;;14.28;98.11;101653.66;1730672;82;21443;-72
2022/10/27 08:36:06;;;;;;;10.25;5.97;;;;;;;14.50;97.85;101661.73;1730918;82;20989;-72
2022/10/27 08:38:34;;;;;;;10.55;5.95;;;;;;;14.66;97.38;101664.73;1730755;82;20912;-72
2022/10/27 08:41:13;;;;;;;11.25;5.78;;;;;;;14.82;97.06;101661.98;1730678;82;21001;-72
2022/10/27 08:43:58;;;;;;;9.40;4.97;;;;;;;15.02;96.80;101664.37;1730863;82;21126;-72
2022/10/27 08:46:51;;;;;;;8.55;4.42;;;;;;;15.25;96.52;101666.22;1730600;82;21541;-72
2022/10/27 08:49:32;;;;;;;8.55;4.35;;;;;;;15.45;95.72;101663.69;1730755;83;21024;-72
2022/10/27 08:52:05;;;;;;;8.35;4.30;;;;;;;15.84;94.87;101660.02;1730976;82;20973;-72
2022/10/27 08:54:32;;;;;;;6.12;3.80;;;;;;;15.84;94.87;101660.02;1729198;82;21014;-72
2022/10/27 08:57:02;;;;;;;7.67;4.22;;;;;;;16.03;94.68;101654.88;1730880;82;21179;-72
2022/10/27 08:59:33;;;;;;;9.78;5.20;;;;;;;16.22;94.43;101658.11;1730641;82;21048;-72
2022/10/27 09:02:20;;;;;;;6.92;4.10;;;;;;;16.37;93.80;101660.58;1730962;82;21403;-72
2022/10/27 09:05:14;;;;;;;12.28;4.50;;;;;;;16.52;93.43;101658.64;1731953;82;20985;-72
2022/10/27 09:08:02;;;;;;;9.98;4.28;;;;;;;16.68;92.91;101664.13;1730468;82;21056;-75
2022/10/27 09:10:52;;;;;;;6.50;4.12;;;;;;;16.89;92.65;101665.04;1730756;82;21120;-79
2022/10/27 09:13:39;;;;;;;6.33;4.05;;;;;;;17.03;92.07;101660.00;1712420;83;27598;-72
2022/10/27 09:16:15;;;;;;;9.53;4.40;;;;;;;17.19;91.74;101662.84;1730222;82;21043;-72
2022/10/27 09:18:54;;;;;;;8.43;4.03;;;;;;;17.36;91.13;101652.80;1730917;82;21004;-72
2022/10/27 09:21:24;;;;;;;6.07;3.63;;;;;;;17.40;90.54;101659.66;1730970;82;21267;-72
2022/10/27 09:23:59;;;;;;;;;;;;;;;17.45;90.23;101660.79;1733542;82;21061;-72
2022/10/27 09:26:31;;;;;;;8.55;4.30;;;;;;;17.49;89.36;101667.22;1730667;83;20162;-72
2022/10/27 09:29:03;;;;;;;12.18;4.58;;;;;;;17.55;89.39;101662.95;1734776;82;21530;-72
2022/10/27 09:31:44;;;;;;;7.72;4.22;;;;;;;17.67;89.15;101668.14;1730887;82;21005;-72
2022/10/27 09:34:41;;;;;;;10.35;5.45;;;;;;;17.80;88.66;101668.00;1730961;82;21009;-72
2022/10/27 09:37:17;;;;;;;9.43;4.78;;;;;;;17.98;88.31;101669.38;1730914;82;21494;-72
2022/10/27 09:39:53;;;;;;;8.10;4.65;;;;;;;18.14;87.86;101667.71;1731003;82;21521;-72
2022/10/27 09:42:21;;;;;;;8.90;4.97;;;;;;;18.32;87.41;101665.97;1730800;82;21048;-72
2022/10/27 09:44:59;;;;;;;10.88;4.45;;;;;;;18.49;86.90;101671.77;1731078;82;20940;-72
2022/10/27 09:47:38;;;;;;;7.60;4.70;;;;;;;18.71;86.84;101676.38;1731072;82;20977;-72
2022/10/27 09:50:11;;;;;;;10.03;4.80;;;;;;;18.98;86.33;101672.41;1731134;82;21738;-72
2022/10/27 09:52:43;;;;;;;8.25;4.42;;;;;;;19.19;85.71;101668.63;1730016;82;21024;-72
2022/10/27 09:55:11;;;;;;;8.53;5.00;;;;;;;19.42;85.12;101671.85;1730815;82;21012;-72
2022/10/27 09:57:41;;;;;;;6.65;4.17;;;;;;;19.54;84.67;101667.22;1730835;82;21421;-72
2022/10/27 10:00:20;;;;;;;11.40;5.12;;;;;;;19.70;84.25;101658.78;1731193;81;21490;-72
2022/10/27 10:03:07;;;;;;;8.70;4.20;;;;;;;19.86;83.62;101663.27;1730802;82;21439;-72
2022/10/27 10:05:37;;;;;;;12.00;5.00;;;;;;;20.09;83.12;101660.16;1732065;82;21000;-72
2022/10/27 10:08:28;;;;;;;8.40;5.10;;;;;;;20.34;82.77;101661.41;1751589;82;21279;-72
2022/10/27 10:11:05;;;;;;;8.55;4.55;;;;;;;20.55;82.35;101661.53;1751445;82;20982;-72
2022/10/27 10:13:37;;;;;;;7.03;4.60;;;;;;;20.72;81.34;101661.38;1748618;81;21025;-72
2022/10/27 10:16:14;;;;;;;9.85;4.50;;;;;;;20.88;81.02;101656.48;1751304;82;21137;-72
2022/10/27 10:19:03;;;;;;;6.12;4.00;;;;;;;21.06;80.72;101660.70;1751347;82;20980;-72
2022/10/27 10:21:49;;;;;;;10.93;4.53;;;;;;;21.32;80.23;101658.23;1751566;82;21064;-72
2022/10/27 10:24:26;;;;;;;7.62;4.33;;;;;;;21.48;79.58;101656.34;1751421;82;21471;-72
2022/10/27 10:26:59;;;;;;;7.83;4.25;;;;;;;21.73;79.04;101653.46;1751339;82;21029;-72
2022/10/27 10:29:40;;;;;;;7.72;4.17;;;;;;;21.79;78.16;101656.58;1751631;82;21585;-72
2022/10/27 10:32:16;;;;;;;9.35;4.65;;;;;;;21.93;77.73;101661.03;1740015;82;21515;-72
2022/10/27 10:34:44;;;;;;;6.95;4.35;;;;;;;22.09;77.43;101658.67;1751597;82;21581;-72
2022/10/27 10:37:32;;;;;;;16.35;4.78;;;;;;;22.31;77.29;101653.69;1751279;82;21510;-72
2022/10/27 10:40:16;;;;;;;6.25;4.25;;;;;;;22.51;76.53;101659.03;1752324;81;20986;-72
2022/10/27 10:42:45;;;;;;;6.60;4.55;;;;;;;22.60;75.74;101658.39;1755767;81;21297;-72
2022/10/27 10:45:21;;;;;;;10.80;4.90;;;;;;;22.73;75.32;101658.91;1756210;81;27402;-72
2022/10/27 10:47:58;;;;;;;7.97;4.97;;;;;;;22.84;74.78;101653.20;1755784;81;21089;-73
2022/10/27 10:50:27;;;;;;;9.10;4.72;;;;;;;23.03;74.34;101654.61;1756095;81;21044;-72
2022/10/27 10:52:57;;;;;;;10.78;5.10;;;;;;;23.13;73.85;101659.70;1755976;81;21521;-73
2022/10/27 10:55:36;;;;;;;8.00;4.80;;;;;;;23.23;73.33;101657.25;1755737;81;21994;-72
2022/10/27 10:58:04;;;;;;;12.47;5.30;;;;;;;23.30;72.98;101659.36;1756125;81;21075;-73
2022/10/27 11:00:32;;;;;;;12.98;5.55;;;;;;;23.29;72.40;101659.00;1755982;81;21045;-74
2022/10/27 11:03:06;;;;;;;10.18;5.15;;;;;;;23.34;71.95;101666.22;1755833;81;21028;-73
2022/10/27 11:05:35;;;;;;;10.45;5.30;;;;;;;23.54;71.50;101659.94;1755093;81;22128;-73
2022/10/27 11:08:05;;;;;;;11.03;4.90;;;;;;;23.75;71.00;101653.52;1755839;81;27673;-72
2022/10/27 11:10:37;;;;;;;9.68;5.03;;;;;;;23.92;70.47;101661.20;1755612;81;21561;-79
2022/10/27 11:13:26;;;;;;;11.75;5.58;;;;;;;24.11;70.52;101656.69;1731280;81;20994;-73
2022/10/27 11:15:58;;;;;;;12.80;6.00;;;;;;;24.24;69.57;101653.92;1754079;81;21064;-76
2022/10/27 11:18:34;;;;;;;11.33;5.58;;;;;;;24.37;69.28;101657.40;1754057;81;21289;-73
2022/10/27 11:21:37;;;;;;;10.03;5.58;;;;;;;24.39;68.76;101656.81;1751467;82;21255;-72
2022/10/27 11:24:31;;;;;;;10.05;5.75;;;;;;;24.50;68.36;101658.71;1751315;82;21282;-77
2022/10/27 11:27:04;;;;;;;14.55;6.17;;;;;;;24.48;67.77;101659.30;1751097;81;21021;-72
2022/10/27 11:29:42;;;;;;;12.35;6.30;;;;;;;24.63;67.65;101660.80;1750404;81;21091;-73
2022/10/27 11:32:23;;;;;;;11.73;5.67;;;;;;;24.59;67.34;101662.52;1733930;82;20994;-73
2022/10/27 11:35:17;;;;;;;13.70;5.42;;;;;;;24.40;66.59;101651.80;1751489;82;21825;-73
2022/10/27 11:38:06;;;;;;;12.37;5.53;;;;;;;24.17;66.48;101658.90;1751102;82;21497;-72
2022/10/27 11:40:54;;;;;;;13.48;5.35;;;;;;;23.86;66.68;101659.44;1750570;81;21529;-73